Time;durP1;ratioP1;P1;durP2;ratioP2;P2;SDS_P1;SDS_P2;PMS_P1;PMS_P2;Temp;Humidity;BMP_temperature;BMP_pressure;BME280_temperature;BME280_humidity;BME280_pressure;Samples;Min_cycle;Max_cycle;Signal;HPM_P1;HPM_P2
2021/06/29 00:00:27;;;;;;;0.77;0.77;;;15.30;99.90;;;;;;2064298;28;20209;-71
2021/06/29 00:01:27;;;;;;;0.40;0.40;;;15.30;99.90;;;;;;2064145;28;20269;-72
2021/06/29 00:02:28;;;;;;;0.63;0.63;;;15.30;99.90;;;;;;2064799;28;20182;-71
2021/06/29 00:03:29;;;;;;;0.70;0.70;;;15.30;99.90;;;;;;2064403;28;20183;-71
2021/06/29 00:04:30;;;;;;;0.63;0.63;;;15.30;99.90;;;;;;2064005;28;20764;-71
2021/06/29 00:05:33;;;;;;;0.63;0.63;;;15.30;99.90;;;;;;2064176;28;20556;-73
2021/06/29 00:06:33;;;;;;;0.50;0.50;;;15.20;99.90;;;;;;2064295;28;20344;-71
2021/06/29 00:07:34;;;;;;;0.53;0.53;;;15.20;99.90;;;;;;2064006;28;20258;-71
2021/06/29 00:08:35;;;;;;;0.73;0.73;;;15.20;99.90;;;;;;2064194;28;20209;-72
2021/06/29 00:09:35;;;;;;;1.03;0.80;;;15.20;99.90;;;;;;2065442;28;20188;-73
2021/06/29 00:10:36;;;;;;;0.67;0.67;;;15.20;99.90;;;;;;2066483;28;20202;-71
2021/06/29 00:11:37;;;;;;;0.67;0.67;;;15.20;99.90;;;;;;2066275;28;20220;-71
2021/06/29 00:12:38;;;;;;;1.80;0.93;;;15.10;99.90;;;;;;2065686;28;20193;-71
2021/06/29 00:13:38;;;;;;;0.87;0.87;;;15.10;99.90;;;;;;2065447;28;20202;-71
2021/06/29 00:14:41;;;;;;;0.60;0.60;;;15.00;99.90;;;;;;2066467;28;20182;-71
2021/06/29 00:15:42;;;;;;;0.57;0.57;;;15.00;99.90;;;;;;2065630;28;20182;-71
2021/06/29 00:16:42;;;;;;;0.40;0.40;;;15.00;99.90;;;;;;2065770;28;20178;-70
2021/06/29 00:17:43;;;;;;;0.43;0.43;;;15.00;99.90;;;;;;2065567;28;20179;-71
2021/06/29 00:18:44;;;;;;;0.77;0.77;;;15.00;99.90;;;;;;2057711;28;20736;-71
2021/06/29 00:19:45;;;;;;;0.80;0.67;;;14.90;99.90;;;;;;2065581;28;20191;-70
2021/06/29 00:20:45;;;;;;;0.47;0.47;;;14.90;99.90;;;;;;2065684;28;20178;-71
2021/06/29 00:21:49;;;;;;;0.97;0.97;;;14.90;99.90;;;;;;2065654;28;20175;-71
2021/06/29 00:22:50;;;;;;;2.05;0.85;;;14.90;99.90;;;;;;2066303;28;20321;-71
2021/06/29 00:23:50;;;;;;;0.83;0.80;;;14.90;99.90;;;;;;2065880;28;20622;-71
2021/06/29 00:24:51;;;;;;;0.80;0.80;;;14.90;99.90;;;;;;2066266;28;20170;-73
2021/06/29 00:25:52;;;;;;;0.87;0.87;;;14.90;99.90;;;;;;2065534;28;20245;-71
2021/06/29 00:26:53;;;;;;;2.23;0.90;;;14.90;99.90;;;;;;2065844;28;20229;-70
2021/06/29 00:27:53;;;;;;;0.60;0.60;;;15.00;99.90;;;;;;2073828;28;20188;-70
2021/06/29 00:28:54;;;;;;;0.80;0.80;;;14.90;99.90;;;;;;2073732;28;20659;-70
2021/06/29 00:29:55;;;;;;;0.70;0.70;;;14.90;99.90;;;;;;2066181;28;20561;-71
2021/06/29 00:30:56;;;;;;;0.97;0.87;;;14.90;99.90;;;;;;2066389;28;20178;-71
2021/06/29 00:31:56;;;;;;;0.77;0.77;;;14.90;99.90;;;;;;2066109;28;20167;-71
2021/06/29 00:32:57;;;;;;;0.80;0.80;;;14.90;99.90;;;;;;2073717;28;20640;-71
2021/06/29 00:33:58;;;;;;;0.60;0.60;;;14.80;99.90;;;;;;2073342;28;20241;-71
2021/06/29 00:34:58;;;;;;;0.40;0.40;;;14.80;99.90;;;;;;2065637;28;20166;-71
2021/06/29 00:35:59;;;;;;;0.93;0.93;;;14.90;99.90;;;;;;2073719;28;20177;-71
2021/06/29 00:37:00;;;;;;;0.60;0.60;;;14.90;99.90;;;;;;2073764;28;20268;-71
2021/06/29 00:38:00;;;;;;;2.23;1.00;;;14.80;99.90;;;;;;2065533;28;20209;-71
2021/06/29 00:39:01;;;;;;;0.97;0.60;;;14.80;99.90;;;;;;2057349;28;20643;-71
2021/06/29 00:40:05;;;;;;;0.83;0.50;;;14.80;99.90;;;;;;2057519;28;20179;-71
2021/06/29 00:41:06;;;;;;;0.90;0.90;;;14.80;99.90;;;;;;2057684;28;20194;-71
2021/06/29 00:42:07;;;;;;;0.40;0.40;;;14.80;99.90;;;;;;2057589;28;20190;-71
2021/06/29 00:43:08;;;;;;;0.90;0.90;;;14.80;99.90;;;;;;2065344;28;20210;-72
2021/06/29 00:44:19;;;;;;;0.70;0.70;;;14.80;99.90;;;;;;2065285;28;20218;-70
2021/06/29 00:45:20;;;;;;;1.15;0.95;;;14.80;99.90;;;;;;2066773;28;20225;-72
2021/06/29 00:46:21;;;;;;;0.80;0.80;;;14.80;99.90;;;;;;2065632;28;20229;-71
2021/06/29 00:47:22;;;;;;;0.87;0.73;;;14.80;99.90;;;;;;2065445;28;20269;-72
2021/06/29 00:48:22;;;;;;;0.90;0.90;;;14.80;99.90;;;;;;2066247;28;20229;-71
2021/06/29 00:49:23;;;;;;;0.70;0.70;;;14.90;99.90;;;;;;2066049;28;20241;-71
2021/06/29 00:50:24;;;;;;;1.00;0.77;;;14.80;99.90;;;;;;2065966;28;20535;-71
2021/06/29 00:51:25;;;;;;;0.57;0.57;;;14.80;99.90;;;;;;2066016;28;20209;-71
2021/06/29 00:52:28;;;;;;;0.67;0.67;;;14.80;99.90;;;;;;2066107;28;20210;-71
2021/06/29 00:53:28;;;;;;;0.88;0.70;;;14.80;99.90;;;;;;2073155;28;20202;-71
2021/06/29 00:54:30;;;;;;;0.37;0.37;;;14.80;99.90;;;;;;2073618;28;20178;-71
2021/06/29 00:55:31;;;;;;;0.75;0.75;;;14.90;99.90;;;;;;2073525;28;20178;-71
2021/06/29 00:56:32;;;;;;;0.68;0.68;;;14.80;99.90;;;;;;2073473;28;20193;-72
2021/06/29 00:57:36;;;;;;;0.60;0.60;;;14.80;99.90;;;;;;2073448;28;20228;-71
2021/06/29 00:58:36;;;;;;;0.77;0.77;;;14.80;99.90;;;;;;2073310;28;20178;-72
2021/06/29 00:59:39;;;;;;;1.00;0.70;;;14.80;99.90;;;;;;2065506;28;20193;-71
2021/06/29 01:00:42;;;;;;;0.55;0.55;;;14.70;99.90;;;;;;2065397;28;20186;-71
2021/06/29 01:01:42;;;;;;;1.05;0.95;;;14.70;99.90;;;;;;2057553;28;20183;-71
2021/06/29 01:02:43;;;;;;;0.50;0.50;;;14.60;99.90;;;;;;2065542;28;20252;-71
2021/06/29 01:03:46;;;;;;;0.53;0.53;;;14.60;99.90;;;;;;2065628;28;20229;-71
2021/06/29 01:04:48;;;;;;;1.08;0.95;;;14.60;99.90;;;;;;2066050;28;20626;-70
2021/06/29 01:05:48;;;;;;;0.88;0.88;;;14.70;99.90;;;;;;2066001;28;20178;-71
2021/06/29 01:06:50;;;;;;;0.50;0.50;;;14.60;99.90;;;;;;2073472;28;20257;-70
2021/06/29 01:07:50;;;;;;;0.90;0.90;;;14.50;99.90;;;;;;2073491;28;20676;-71
2021/06/29 01:08:51;;;;;;;1.93;1.37;;;14.50;99.90;;;;;;2066042;28;20170;-70
2021/06/29 01:09:52;;;;;;;0.70;0.70;;;14.50;99.90;;;;;;2065933;28;20248;-70
2021/06/29 01:10:52;;;;;;;0.40;0.40;;;14.50;99.90;;;;;;2066196;28;20217;-71
2021/06/29 01:11:53;;;;;;;0.97;0.70;;;14.50;99.90;;;;;;2065953;28;20186;-71
2021/06/29 01:12:54;;;;;;;0.93;0.87;;;14.40;99.90;;;;;;2073570;28;20194;-70
2021/06/29 01:13:55;;;;;;;0.60;0.60;;;14.40;99.90;;;;;;2073154;28;20274;-71
2021/06/29 01:14:56;;;;;;;0.82;0.73;;;14.40;99.90;;;;;;2065417;28;20175;-71
2021/06/29 01:15:58;;;;;;;0.77;0.77;;;14.30;99.90;;;;;;2073400;28;20268;-73
2021/06/29 01:17:01;;;;;;;0.50;0.50;;;14.30;99.90;;;;;;2073302;28;20181;-71
2021/06/29 01:18:03;;;;;;;0.40;0.40;;;14.30;99.90;;;;;;2073501;28;20184;-71
2021/06/29 01:19:03;;;;;;;0.88;0.88;;;14.40;99.90;;;;;;2073172;28;20173;-71
2021/06/29 01:20:14;;;;;;;0.77;0.77;;;14.30;99.90;;;;;;2065768;28;20233;-71
2021/06/29 01:21:19;;;;;;;0.47;0.47;;;14.30;99.90;;;;;;2065173;28;20170;-71
2021/06/29 01:22:21;;;;;;;0.80;0.80;;;14.40;99.90;;;;;;2073174;28;20284;-71
2021/06/29 01:23:24;;;;;;;0.50;0.50;;;14.40;99.90;;;;;;2072886;28;20688;-71
2021/06/29 01:24:30;;;;;;;0.85;0.85;;;14.40;99.90;;;;;;2073262;28;20596;-71
2021/06/29 01:25:32;;;;;;;0.75;0.75;;;14.50;99.90;;;;;;2072483;28;20721;-72
2021/06/29 01:26:35;;;;;;;0.90;0.90;;;14.50;99.90;;;;;;2065322;28;20182;-72
2021/06/29 01:27:54;;;;;;;0.60;0.55;;;14.50;99.90;;;;;;2066021;28;20178;-72
2021/06/29 01:29:05;;;;;;;0.55;0.55;;;14.60;99.90;;;;;;2065935;28;20165;-72
2021/06/29 01:31:15;;;;;;;0.70;0.70;;;14.50;99.90;;;;;;2078311;28;20173;-72
2021/06/29 01:32:18;;;;;;;0.50;0.50;;;14.50;99.90;;;;;;2080340;28;20180;-71
2021/06/29 01:33:20;;;;;;;0.52;0.50;;;14.50;99.90;;;;;;2081226;28;20177;-72
2021/06/29 01:34:21;;;;;;;0.80;0.80;;;14.50;99.90;;;;;;2081331;28;20184;-72
2021/06/29 01:35:21;;;;;;;0.40;0.40;;;14.50;99.90;;;;;;2073234;28;20740;-71
2021/06/29 01:36:27;;;;;;;0.70;0.70;;;14.50;99.90;;;;;;2073190;28;20205;-71
2021/06/29 01:37:27;;;;;;;0.90;0.60;;;14.50;99.90;;;;;;2065760;28;20186;-71
2021/06/29 01:38:28;;;;;;;1.50;1.23;;;14.50;99.90;;;;;;2073193;28;20273;-71
2021/06/29 01:39:29;;;;;;;0.90;0.90;;;14.50;99.90;;;;;;2073827;28;20608;-72
2021/06/29 01:40:31;;;;;;;0.80;0.80;;;14.50;99.90;;;;;;2073913;28;20181;-71
2021/06/29 01:41:32;;;;;;;0.80;0.80;;;14.50;99.90;;;;;;2073800;28;20182;-72
2021/06/29 01:42:33;;;;;;;0.80;0.80;;;14.50;99.90;;;;;;2081556;28;20597;-71
2021/06/29 01:43:40;;;;;;;1.10;1.10;;;14.50;99.90;;;;;;2072770;28;20198;-71
2021/06/29 01:44:42;;;;;;;0.93;0.93;;;14.50;99.90;;;;;;2065970;28;20228;-71
2021/06/29 01:45:45;;;;;;;0.40;0.40;;;14.50;99.90;;;;;;2073036;28;20177;-71
2021/06/29 01:46:48;;;;;;;0.90;0.90;;;14.50;99.90;;;;;;2065536;28;20170;-71
2021/06/29 01:48:53;;;;;;;0.47;0.47;;;14.60;99.90;;;;;;2073947;28;20260;-71
2021/06/29 01:49:54;;;;;;;1.27;1.17;;;14.60;99.90;;;;;;2081205;28;20637;-72
2021/06/29 01:50:56;;;;;;;0.50;0.50;;;14.50;99.90;;;;;;2081248;28;20723;-70
2021/06/29 01:51:57;;;;;;;0.45;0.45;;;14.50;99.90;;;;;;2065165;28;20178;-71
2021/06/29 01:52:59;;;;;;;0.60;0.60;;;14.50;99.90;;;;;;2073143;28;20265;-71
2021/06/29 01:54:00;;;;;;;0.85;0.85;;;14.50;99.90;;;;;;2073215;28;20665;-71
2021/06/29 01:55:01;;;;;;;0.80;0.70;;;14.50;99.90;;;;;;2081313;28;20177;-72
2021/06/29 01:56:02;;;;;;;2.30;0.93;;;14.50;99.90;;;;;;2081038;28;20262;-70
2021/06/29 01:57:04;;;;;;;0.60;0.60;;;14.50;99.90;;;;;;2065076;28;20952;-72
2021/06/29 01:58:04;;;;;;;0.88;0.88;;;14.50;99.90;;;;;;2073054;28;20228;-70
2021/06/29 01:59:11;;;;;;;0.57;0.57;;;14.50;99.90;;;;;;2073764;28;20185;-70
2021/06/29 02:00:13;;;;;;;0.90;0.90;;;14.50;99.90;;;;;;2081165;28;20231;-70
2021/06/29 02:01:14;;;;;;;0.95;0.95;;;14.50;99.90;;;;;;2080934;28;20667;-71
2021/06/29 02:02:15;;;;;;;0.47;0.47;;;14.50;99.90;;;;;;2072929;28;20181;-72
2021/06/29 02:03:16;;;;;;;0.80;0.80;;;14.50;99.90;;;;;;2064788;28;20552;-71
2021/06/29 02:04:16;;;;;;;0.63;0.63;;;14.50;99.90;;;;;;2072871;28;20201;-71
2021/06/29 02:05:17;;;;;;;0.90;0.90;;;14.60;99.90;;;;;;2073627;28;20189;-71
2021/06/29 02:06:18;;;;;;;1.07;1.07;;;14.60;99.90;;;;;;2081098;28;20205;-71
2021/06/29 02:07:19;;;;;;;0.52;0.52;;;14.60;99.90;;;;;;2072975;28;20661;-71
2021/06/29 02:08:20;;;;;;;0.80;0.80;;;14.60;99.90;;;;;;2072930;28;20181;-72
2021/06/29 02:09:20;;;;;;;0.63;0.63;;;14.60;99.90;;;;;;2081326;28;20216;-70
2021/06/29 02:10:21;;;;;;;0.70;0.70;;;14.60;99.90;;;;;;2073428;28;20205;-72
2021/06/29 02:11:22;;;;;;;0.30;0.30;;;14.60;99.90;;;;;;2072970;28;20253;-71
2021/06/29 02:12:23;;;;;;;0.97;0.60;;;14.60;99.90;;;;;;2073049;28;20182;-70
2021/06/29 02:13:24;;;;;;;1.10;1.10;;;14.60;99.90;;;;;;2073338;28;20265;-71
2021/06/29 02:14:25;;;;;;;0.30;0.30;;;14.60;99.90;;;;;;2073451;28;20190;-72
2021/06/29 02:15:26;;;;;;;0.63;0.63;;;14.60;99.90;;;;;;2073775;28;20274;-71
2021/06/29 02:16:26;;;;;;;0.60;0.60;;;14.60;99.90;;;;;;2080974;28;20204;-71
2021/06/29 02:17:27;;;;;;;1.23;0.70;;;14.50;99.90;;;;;;2081182;28;20647;-71
2021/06/29 02:18:28;;;;;;;0.50;0.50;;;14.50;99.90;;;;;;2064884;28;20288;-72
2021/06/29 02:19:29;;;;;;;0.93;0.93;;;14.50;99.90;;;;;;2064724;28;20209;-71
2021/06/29 02:20:30;;;;;;;0.67;0.67;;;14.50;99.90;;;;;;2072787;28;20201;-71
2021/06/29 02:21:31;;;;;;;0.90;0.90;;;14.50;99.90;;;;;;2072738;28;20177;-71
2021/06/29 02:22:31;;;;;;;1.37;0.70;;;14.50;99.90;;;;;;2072783;28;20185;-70
2021/06/29 02:23:33;;;;;;;0.73;0.73;;;14.50;99.90;;;;;;2072650;28;20201;-71
2021/06/29 02:24:34;;;;;;;0.50;0.50;;;14.40;99.90;;;;;;2064725;28;20210;-70
2021/06/29 02:25:35;;;;;;;0.50;0.50;;;14.40;99.90;;;;;;2072832;28;20264;-71
2021/06/29 02:26:35;;;;;;;0.80;0.50;;;14.50;99.90;;;;;;2073272;28;20174;-71
2021/06/29 02:27:36;;;;;;;0.50;0.50;;;14.50;99.90;;;;;;2072748;28;20420;-71
2021/06/29 02:28:36;;;;;;;1.07;0.57;;;14.50;99.90;;;;;;2064508;28;20185;-71
2021/06/29 02:29:37;;;;;;;0.60;0.60;;;14.40;99.90;;;;;;2064664;28;20649;-72
2021/06/29 02:30:38;;;;;;;1.37;0.60;;;14.50;99.90;;;;;;2072858;28;20177;-71
2021/06/29 02:31:39;;;;;;;0.47;0.47;;;14.50;99.90;;;;;;2064535;28;20178;-70
2021/06/29 02:32:40;;;;;;;0.97;0.93;;;14.50;99.90;;;;;;2072757;28;20208;-72
2021/06/29 02:33:41;;;;;;;0.52;0.52;;;14.40;99.90;;;;;;2072354;28;20202;-72
2021/06/29 02:34:42;;;;;;;1.07;1.07;;;14.50;99.90;;;;;;2072807;28;20560;-71
2021/06/29 02:35:43;;;;;;;0.50;0.50;;;14.50;99.90;;;;;;2072740;28;20209;-72
2021/06/29 02:36:43;;;;;;;0.60;0.60;;;14.50;99.90;;;;;;2064568;28;20205;-72
2021/06/29 02:37:44;;;;;;;0.30;0.30;;;14.50;99.90;;;;;;2072778;28;20196;-71
2021/06/29 02:38:45;;;;;;;0.60;0.60;;;14.50;99.90;;;;;;2073396;28;20181;-71
2021/06/29 02:39:45;;;;;;;0.50;0.50;;;14.50;99.90;;;;;;2073322;28;20272;-72
2021/06/29 02:40:46;;;;;;;0.60;0.57;;;14.60;99.90;;;;;;2073244;28;20213;-72
2021/06/29 02:41:47;;;;;;;3.27;0.97;;;14.60;99.90;;;;;;2072507;28;20204;-72
2021/06/29 02:42:48;;;;;;;0.53;0.53;;;14.70;99.90;;;;;;2072683;28;20178;-72
2021/06/29 02:43:49;;;;;;;0.60;0.60;;;14.70;99.90;;;;;;2072943;28;20204;-71
2021/06/29 02:44:50;;;;;;;0.60;0.60;;;14.70;99.90;;;;;;2072491;28;20475;-71
2021/06/29 02:45:51;;;;;;;0.87;0.77;;;14.70;99.90;;;;;;2064620;28;20174;-72
2021/06/29 02:46:51;;;;;;;0.77;0.77;;;14.70;99.90;;;;;;2072678;28;20178;-72
2021/06/29 02:47:53;;;;;;;0.73;0.73;;;14.70;99.90;;;;;;2073130;28;20531;-71
2021/06/29 02:48:56;;;;;;;0.50;0.50;;;14.70;99.90;;;;;;2073383;28;20182;-72
2021/06/29 02:49:56;;;;;;;0.52;0.52;;;14.70;99.90;;;;;;2080741;28;20179;-72
2021/06/29 02:50:57;;;;;;;0.57;0.57;;;14.70;99.90;;;;;;2080668;28;20697;-72
2021/06/29 02:51:58;;;;;;;0.70;0.70;;;14.60;99.90;;;;;;2073247;28;20166;-72
2021/06/29 02:52:59;;;;;;;0.30;0.30;;;14.60;99.90;;;;;;2072613;28;20178;-72
2021/06/29 02:53:59;;;;;;;1.20;1.10;;;14.60;99.90;;;;;;2072274;28;20197;-71
2021/06/29 02:55:02;;;;;;;0.60;0.60;;;14.60;99.90;;;;;;2068119;28;20173;-72
2021/06/29 02:56:03;;;;;;;0.50;0.50;;;14.70;99.90;;;;;;2070804;28;20677;-72
2021/06/29 02:57:05;;;;;;;0.40;0.40;;;14.70;99.90;;;;;;2066465;28;20194;-72
2021/06/29 02:58:05;;;;;;;0.60;0.60;;;14.70;99.90;;;;;;2059763;28;20201;-71
2021/06/29 02:59:15;;;;;;;0.43;0.43;;;14.70;99.90;;;;;;2065062;28;20178;-71
2021/06/29 03:00:19;;;;;;;0.95;0.95;;;14.70;99.90;;;;;;2064603;28;20184;-71
2021/06/29 03:01:19;;;;;;;0.52;0.52;;;14.70;99.90;;;;;;2064590;28;20181;-71
2021/06/29 03:02:20;;;;;;;1.20;1.10;;;14.70;99.90;;;;;;2064496;28;20206;-71
2021/06/29 03:03:21;;;;;;;0.50;0.50;;;14.70;99.90;;;;;;2063955;28;20201;-71
2021/06/29 03:04:22;;;;;;;0.70;0.70;;;14.60;99.90;;;;;;2064382;28;20590;-73
2021/06/29 03:05:23;;;;;;;1.08;1.05;;;14.70;99.90;;;;;;2064471;28;20225;-71
2021/06/29 03:06:24;;;;;;;0.50;0.50;;;14.60;99.90;;;;;;2072668;28;20181;-72
2021/06/29 03:07:24;;;;;;;1.03;1.03;;;14.70;99.90;;;;;;2064997;28;20174;-72
2021/06/29 03:08:25;;;;;;;1.10;1.10;;;14.80;99.90;;;;;;2065029;28;20174;-71
2021/06/29 03:09:26;;;;;;;0.40;0.40;;;14.80;99.90;;;;;;2064994;28;20175;-72
2021/06/29 03:10:27;;;;;;;0.80;0.80;;;14.80;99.90;;;;;;2065131;28;20652;-71
2021/06/29 03:11:28;;;;;;;0.70;0.63;;;14.90;99.90;;;;;;2072586;28;20178;-72
2021/06/29 03:12:28;;;;;;;0.77;0.77;;;14.80;99.90;;;;;;2064317;28;20429;-71
2021/06/29 03:13:29;;;;;;;0.87;0.50;;;14.80;99.90;;;;;;2056191;28;20654;-70
2021/06/29 03:14:30;;;;;;;0.53;0.53;;;14.70;99.90;;;;;;2064902;28;20174;-72
2021/06/29 03:15:31;;;;;;;0.83;0.77;;;14.70;99.90;;;;;;2065027;28;20178;-70
2021/06/29 03:16:32;;;;;;;0.93;0.45;;;14.70;99.90;;;;;;2072463;28;20562;-71
2021/06/29 03:17:33;;;;;;;0.90;0.90;;;14.70;99.90;;;;;;2072555;28;20312;-71
2021/06/29 03:18:34;;;;;;;0.50;0.50;;;14.70;99.90;;;;;;2064250;28;20426;-70
2021/06/29 03:19:36;;;;;;;0.85;0.85;;;14.70;99.90;;;;;;2064924;28;20182;-70
2021/06/29 03:20:38;;;;;;;0.75;0.75;;;14.80;99.90;;;;;;2064912;28;20186;-70
2021/06/29 03:21:39;;;;;;;1.52;1.42;;;14.80;99.90;;;;;;2064937;28;20183;-70
2021/06/29 03:22:40;;;;;;;0.73;0.73;;;14.80;99.90;;;;;;2064911;28;20265;-71
2021/06/29 03:23:40;;;;;;;0.77;0.77;;;14.80;99.90;;;;;;2064134;28;20198;-71
2021/06/29 03:24:41;;;;;;;0.50;0.50;;;14.80;99.90;;;;;;2064176;28;20270;-71
2021/06/29 03:25:42;;;;;;;0.87;0.70;;;14.90;99.90;;;;;;2064444;28;20233;-72
2021/06/29 03:26:43;;;;;;;0.70;0.70;;;15.00;99.90;;;;;;2064307;28;20538;-70
2021/06/29 03:27:43;;;;;;;0.40;0.40;;;15.00;99.90;;;;;;2072601;28;20186;-71
2021/06/29 03:28:44;;;;;;;0.70;0.70;;;15.00;99.90;;;;;;2072437;28;20628;-71
2021/06/29 03:29:45;;;;;;;0.80;0.80;;;15.00;99.90;;;;;;2072624;28;20181;-71
2021/06/29 03:30:46;;;;;;;0.90;0.80;;;15.00;99.90;;;;;;2072362;28;20193;-73
2021/06/29 03:31:47;;;;;;;0.50;0.50;;;14.90;99.90;;;;;;2064476;28;20246;-70
2021/06/29 03:32:47;;;;;;;0.50;0.50;;;14.80;99.90;;;;;;2064358;28;20257;-71
2021/06/29 03:33:48;;;;;;;0.80;0.80;;;14.90;99.90;;;;;;2072269;28;20251;-72
2021/06/29 03:34:49;;;;;;;0.60;0.60;;;14.80;99.90;;;;;;2065039;28;20171;-70
2021/06/29 03:35:49;;;;;;;0.43;0.43;;;14.80;99.90;;;;;;2064407;28;20208;-70
2021/06/29 03:36:50;;;;;;;0.70;0.70;;;14.70;99.90;;;;;;2064353;28;20198;-72
2021/06/29 03:37:52;;;;;;;0.67;0.67;;;14.70;99.90;;;;;;2064445;28;20188;-70
2021/06/29 03:38:52;;;;;;;0.60;0.60;;;14.60;99.90;;;;;;2064346;28;20203;-72
2021/06/29 03:39:53;;;;;;;0.50;0.50;;;14.60;99.90;;;;;;2066646;28;20556;-71
2021/06/29 03:40:54;;;;;;;0.60;0.60;;;14.60;99.90;;;;;;2064266;28;20182;-71
2021/06/29 03:41:54;;;;;;;1.23;1.00;;;14.60;99.90;;;;;;2064337;28;20181;-72
2021/06/29 03:42:55;;;;;;;0.60;0.60;;;14.60;99.90;;;;;;2064288;28;20182;-71
2021/06/29 03:43:56;;;;;;;0.70;0.70;;;14.60;99.90;;;;;;2064219;28;20202;-71
2021/06/29 03:44:56;;;;;;;0.50;0.50;;;14.60;99.90;;;;;;2072175;28;20281;-72
2021/06/29 03:45:57;;;;;;;0.73;0.73;;;14.60;99.90;;;;;;2072355;28;20182;-71
2021/06/29 03:46:58;;;;;;;0.70;0.47;;;14.60;99.90;;;;;;2064234;28;20174;-70
2021/06/29 03:47:59;;;;;;;0.63;0.63;;;14.50;99.90;;;;;;2064920;28;20174;-71
2021/06/29 03:49:00;;;;;;;0.40;0.40;;;14.60;99.90;;;;;;2072359;28;20632;-71
2021/06/29 03:50:01;;;;;;;0.50;0.50;;;14.60;99.90;;;;;;2064079;28;20185;-71
2021/06/29 03:51:03;;;;;;;0.60;0.60;;;14.60;99.90;;;;;;2064165;28;20413;-72
2021/06/29 03:52:05;;;;;;;0.70;0.70;;;14.60;99.90;;;;;;2064578;28;20232;-70
2021/06/29 03:53:06;;;;;;;0.50;0.50;;;14.70;99.90;;;;;;2072046;28;20645;-72
2021/06/29 03:54:07;;;;;;;0.70;0.70;;;14.70;99.90;;;;;;2071837;28;20197;-72
2021/06/29 03:55:08;;;;;;;1.02;0.50;;;14.80;99.90;;;;;;2064596;28;20591;-71
2021/06/29 03:56:23;;;;;;;0.50;0.50;;;14.80;99.90;;;;;;2064390;28;20201;-71
2021/06/29 03:57:24;;;;;;;0.98;0.98;;;14.70;99.90;;;;;;2071985;28;20174;-71
2021/06/29 03:58:25;;;;;;;0.90;0.87;;;14.70;99.90;;;;;;2070432;28;20209;-71
2021/06/29 03:59:26;;;;;;;0.60;0.60;;;14.60;99.90;;;;;;2064520;28;20202;-71
2021/06/29 04:00:27;;;;;;;0.75;0.75;;;14.60;99.90;;;;;;2064607;28;20178;-71
2021/06/29 04:01:29;;;;;;;0.40;0.40;;;14.60;99.90;;;;;;2063905;28;20269;-71
2021/06/29 04:02:30;;;;;;;0.43;0.43;;;14.60;99.90;;;;;;2063993;28;20202;-70
2021/06/29 04:03:30;;;;;;;0.67;0.67;;;14.70;99.90;;;;;;2063650;28;20186;-71
2021/06/29 04:04:31;;;;;;;1.20;0.97;;;14.70;99.90;;;;;;2055788;28;20206;-72
2021/06/29 04:05:32;;;;;;;0.40;0.40;;;14.70;99.90;;;;;;2056014;28;20183;-71
2021/06/29 04:06:37;;;;;;;0.60;0.60;;;14.80;99.90;;;;;;2063990;28;20179;-70
2021/06/29 04:07:38;;;;;;;0.50;0.50;;;14.80;99.90;;;;;;2063955;28;20170;-70
2021/06/29 04:08:39;;;;;;;0.63;0.63;;;14.80;99.90;;;;;;2063973;28;20174;-71
2021/06/29 04:09:39;;;;;;;0.53;0.53;;;14.80;99.90;;;;;;2064580;28;20528;-71
2021/06/29 04:10:40;;;;;;;0.40;0.40;;;14.70;99.90;;;;;;2064533;28;20186;-69
2021/06/29 04:11:41;;;;;;;0.40;0.40;;;14.70;99.90;;;;;;2064620;28;20189;-71
2021/06/29 04:12:42;;;;;;;0.40;0.40;;;14.60;99.90;;;;;;2064443;28;20230;-69
2021/06/29 04:13:42;;;;;;;0.60;0.60;;;14.60;99.90;;;;;;2071836;28;20332;-71
2021/06/29 04:14:43;;;;;;;1.10;1.00;;;14.60;99.90;;;;;;2072022;28;20586;-71
2021/06/29 04:15:44;;;;;;;0.50;0.50;;;14.60;99.90;;;;;;2064593;28;20193;-71
2021/06/29 04:16:44;;;;;;;0.50;0.50;;;14.60;99.90;;;;;;2064443;28;20237;-71
2021/06/29 04:17:45;;;;;;;0.57;0.57;;;14.60;99.90;;;;;;2072037;28;20562;-71
2021/06/29 04:18:46;;;;;;;0.87;0.83;;;14.60;99.90;;;;;;2071855;28;20220;-70
2021/06/29 04:19:47;;;;;;;0.70;0.70;;;14.70;99.90;;;;;;2064630;28;20201;-72
2021/06/29 04:20:47;;;;;;;1.17;1.13;;;14.60;99.90;;;;;;2064468;28;20603;-72
2021/06/29 04:21:48;;;;;;;0.37;0.37;;;14.60;99.90;;;;;;2064510;28;20178;-71
2021/06/29 04:22:49;;;;;;;0.50;0.50;;;14.60;99.90;;;;;;2064275;28;20262;-72
2021/06/29 04:23:50;;;;;;;0.63;0.43;;;14.60;99.90;;;;;;2064217;28;20273;-72
2021/06/29 04:24:51;;;;;;;0.40;0.40;;;14.70;99.90;;;;;;2063749;28;20217;-71
2021/06/29 04:25:51;;;;;;;0.50;0.50;;;14.70;99.90;;;;;;2064028;28;20641;-71
2021/06/29 04:26:52;;;;;;;0.50;0.50;;;14.80;99.90;;;;;;2064540;28;20174;-71
2021/06/29 04:27:53;;;;;;;0.37;0.37;;;14.80;99.90;;;;;;2064550;28;20171;-71
2021/06/29 04:28:53;;;;;;;0.70;0.70;;;14.90;99.90;;;;;;2071913;28;20269;-71
2021/06/29 04:29:54;;;;;;;0.43;0.43;;;14.90;99.90;;;;;;2072046;28;20273;-70
2021/06/29 04:30:55;;;;;;;0.70;0.70;;;14.90;99.90;;;;;;2071956;28;20278;-72
2021/06/29 04:31:56;;;;;;;1.37;0.73;;;14.90;99.90;;;;;;2072281;28;20700;-72
2021/06/29 04:32:56;;;;;;;0.90;0.90;;;14.90;99.90;;;;;;2064706;28;20696;-71
2021/06/29 04:33:57;;;;;;;0.53;0.53;;;15.00;99.90;;;;;;2064494;28;20239;-71
2021/06/29 04:34:58;;;;;;;0.43;0.43;;;15.00;99.90;;;;;;2064611;28;20202;-71
2021/06/29 04:35:59;;;;;;;1.23;1.13;;;15.00;99.90;;;;;;2072358;28;20719;-71
2021/06/29 04:37:01;;;;;;;0.43;0.43;;;14.90;99.90;;;;;;2064125;28;20237;-71
2021/06/29 04:38:02;;;;;;;0.50;0.50;;;14.90;99.90;;;;;;2056340;28;20252;-71
2021/06/29 04:39:03;;;;;;;1.03;0.97;;;14.90;99.90;;;;;;2056522;28;21080;-71
2021/06/29 04:40:06;;;;;;;0.40;0.40;;;14.90;99.90;;;;;;2063854;28;20194;-72
2021/06/29 04:41:06;;;;;;;0.57;0.57;;;15.00;99.90;;;;;;2063787;28;20186;-70
2021/06/29 04:42:08;;;;;;;0.50;0.50;;;15.00;99.90;;;;;;2063831;28;20182;-71
2021/06/29 04:43:08;;;;;;;0.75;0.75;;;15.00;99.90;;;;;;2063586;28;20186;-70
2021/06/29 04:44:09;;;;;;;0.40;0.40;;;15.00;99.90;;;;;;2063780;28;20224;-71
2021/06/29 04:45:11;;;;;;;1.00;1.00;;;15.00;99.90;;;;;;2063857;28;20180;-70
2021/06/29 04:46:13;;;;;;;0.63;0.63;;;14.90;99.90;;;;;;2063673;28;20217;-71
2021/06/29 04:47:13;;;;;;;0.77;0.77;;;15.00;99.90;;;;;;2071941;28;20411;-71
2021/06/29 04:48:14;;;;;;;0.60;0.60;;;15.00;99.90;;;;;;2071822;28;20585;-70
2021/06/29 04:49:16;;;;;;;0.83;0.83;;;15.00;99.90;;;;;;2071985;28;20173;-71
2021/06/29 04:50:17;;;;;;;0.70;0.70;;;15.00;99.90;;;;;;2071586;28;20260;-72
2021/06/29 04:51:18;;;;;;;0.40;0.40;;;15.10;99.90;;;;;;2071893;28;20257;-71
2021/06/29 04:52:19;;;;;;;0.73;0.73;;;15.10;99.90;;;;;;2071811;28;20448;-71
2021/06/29 04:53:19;;;;;;;0.53;0.53;;;15.10;99.90;;;;;;2064105;28;20230;-71
2021/06/29 04:54:20;;;;;;;0.57;0.57;;;15.10;99.90;;;;;;2063594;28;20190;-71
2021/06/29 04:55:21;;;;;;;0.77;0.77;;;15.10;99.90;;;;;;2059883;28;20198;-71
2021/06/29 04:56:21;;;;;;;0.70;0.70;;;15.10;99.90;;;;;;2065332;28;20213;-71
2021/06/29 04:57:22;;;;;;;0.33;0.33;;;15.10;99.90;;;;;;2065246;28;20186;-70
2021/06/29 04:58:23;;;;;;;0.40;0.40;;;15.10;99.90;;;;;;2065257;28;20623;-71
2021/06/29 04:59:24;;;;;;;0.40;0.40;;;15.10;99.90;;;;;;2065279;28;20344;-71
2021/06/29 05:00:25;;;;;;;0.40;0.40;;;15.10;99.90;;;;;;2065219;28;20186;-71
2021/06/29 05:01:26;;;;;;;0.97;0.70;;;15.20;99.90;;;;;;2065861;28;20190;-70
2021/06/29 05:02:26;;;;;;;1.07;0.87;;;15.10;99.90;;;;;;2065775;28;20186;-70
2021/06/29 05:03:27;;;;;;;0.93;0.93;;;15.10;99.90;;;;;;2066434;28;20187;-72
2021/06/29 05:04:28;;;;;;;0.50;0.50;;;15.00;99.90;;;;;;2065821;28;20213;-70
2021/06/29 05:05:28;;;;;;;0.60;0.60;;;15.00;99.90;;;;;;2065892;28;20186;-70
2021/06/29 05:06:29;;;;;;;0.60;0.60;;;15.00;99.90;;;;;;2065776;28;20229;-71
2021/06/29 05:07:30;;;;;;;0.60;0.60;;;15.00;99.90;;;;;;2065943;28;20184;-71
2021/06/29 05:08:30;;;;;;;0.60;0.60;;;15.00;99.90;;;;;;2065134;28;20179;-70
2021/06/29 05:09:31;;;;;;;0.43;0.43;;;15.10;99.90;;;;;;2057284;28;20266;-71
2021/06/29 05:10:32;;;;;;;0.87;0.87;;;15.10;99.90;;;;;;2065214;28;20253;-71
2021/06/29 05:11:32;;;;;;;0.57;0.57;;;15.20;99.90;;;;;;2065923;28;20265;-70
2021/06/29 05:12:34;;;;;;;0.60;0.60;;;15.20;99.90;;;;;;2065857;28;20182;-72
2021/06/29 05:13:34;;;;;;;0.60;0.60;;;15.30;99.90;;;;;;2065603;28;20704;-70
2021/06/29 05:14:35;;;;;;;0.50;0.50;;;15.30;99.90;;;;;;2065759;28;20197;-71
2021/06/29 05:15:36;;;;;;;0.83;0.83;;;15.20;99.90;;;;;;2065940;28;20186;-68
2021/06/29 05:16:38;;;;;;;0.47;0.47;;;15.20;99.90;;;;;;2065673;28;20186;-68
2021/06/29 05:17:39;;;;;;;0.55;0.55;;;15.20;99.90;;;;;;2065259;28;20214;-68
2021/06/29 05:18:40;;;;;;;0.33;0.33;;;15.10;99.90;;;;;;2065242;28;20543;-67
2021/06/29 05:19:40;;;;;;;0.60;0.60;;;15.10;99.90;;;;;;2065954;28;20228;-68
2021/06/29 05:20:41;;;;;;;0.73;0.63;;;15.10;99.90;;;;;;2065899;28;20274;-68
2021/06/29 05:21:42;;;;;;;1.00;0.90;;;15.10;99.90;;;;;;2065964;28;20268;-67